Time;durP1;ratioP1;P1;durP2;ratioP2;P2;SDS_P1;SDS_P2;PMS_P1;PMS_P2;Temp;Humidity;BMP_temperature;BMP_pressure;BME280_temperature;BME280_humidity;BME280_pressure;Samples;Min_cycle;Max_cycle;Signal;HPM_P1;HPM_P2
2023/04/12 00:02:48;;;;;;;6.00;5.40;;;22.30;68.20;;;;;;6334845;27;89050;-71
2023/04/12 00:05:53;;;;;;;6.13;5.55;;;22.40;68.30;;;;;;6346887;27;89116;-72
2023/04/12 00:08:55;;;;;;;6.03;5.43;;;22.30;68.30;;;;;;6337963;27;89058;-71
2023/04/12 00:11:57;;;;;;;5.97;5.38;;;22.40;68.30;;;;;;6350916;27;88994;-70
2023/04/12 00:15:00;;;;;;;6.43;5.80;;;22.30;68.40;;;;;;6345693;27;89940;-71
2023/04/12 00:18:02;;;;;;;5.93;5.32;;;22.30;68.40;;;;;;6346710;27;88611;-71
2023/04/12 00:21:07;;;;;;;6.57;5.93;;;22.30;68.40;;;;;;6342956;27;89558;-72
2023/04/12 00:24:09;;;;;;;6.65;6.05;;;22.40;68.40;;;;;;6337001;27;89144;-70
2023/04/12 00:27:11;;;;;;;6.70;6.10;;;22.30;68.40;;;;;;6337131;27;89229;-72
2023/04/12 00:30:13;;;;;;;6.22;5.63;;;22.30;68.40;;;;;;6348349;27;89072;-70
2023/04/12 00:33:15;;;;;;;6.63;6.03;;;22.30;68.40;;;;;;6346108;27;89140;-71
2023/04/12 00:36:19;;;;;;;6.70;6.00;;;22.30;68.40;;;;;;6333417;27;89081;-71
2023/04/12 00:39:21;;;;;;;6.55;5.95;;;22.30;68.30;;;;;;6334192;27;88874;-71
2023/04/12 00:42:23;;;;;;;6.28;5.68;;;22.30;68.30;;;;;;6334269;27;89241;-71
2023/04/12 00:45:25;;;;;;;6.20;5.60;;;22.30;68.30;;;;;;6357891;27;89068;-71
2023/04/12 00:48:27;;;;;;;6.18;5.57;;;22.30;68.30;;;;;;6350076;27;88539;-71
2023/04/12 00:51:32;;;;;;;6.55;5.95;;;22.30;68.40;;;;;;6346871;27;87891;-71
2023/04/12 00:54:35;;;;;;;6.63;6.03;;;22.20;68.40;;;;;;6350282;27;89223;-71
2023/04/12 00:57:39;;;;;;;6.40;5.80;;;22.20;68.40;;;;;;6355331;27;90474;-71
2023/04/12 01:00:43;;;;;;;6.40;5.80;;;22.20;68.40;;;;;;6334388;27;89384;-70
2023/04/12 01:03:46;;;;;;;6.32;5.72;;;22.20;68.30;;;;;;6353636;27;89600;-71
2023/04/12 01:07:03;;;;;;;6.30;5.70;;;22.20;68.30;;;;;;6337870;27;88970;-70
2023/04/12 01:10:13;;;;;;;6.30;5.70;;;22.20;68.30;;;;;;6355664;27;89162;-71
2023/04/12 01:13:30;;;;;;;6.22;5.63;;;22.20;68.30;;;;;;6347033;27;89003;-71
2023/04/12 01:16:39;;;;;;;6.32;5.65;;;22.20;68.30;;;;;;6356105;27;89050;-71
2023/04/12 01:19:56;;;;;;;6.07;5.47;;;22.20;68.30;;;;;;6333113;27;88321;-71
2023/04/12 01:23:17;;;;;;;6.25;5.65;;;22.20;68.30;;;;;;6331814;27;89825;-71
2023/04/12 01:26:35;;;;;;;6.20;5.60;;;22.20;68.30;;;;;;6337396;27;89428;-71
2023/04/12 01:29:40;;;;;;;6.40;5.80;;;22.20;68.40;;;;;;6355858;27;90021;-71
2023/04/12 01:32:46;;;;;;;5.78;5.18;;;22.20;69.30;;;;;;6339415;27;88032;-71
2023/04/12 01:35:49;;;;;;;6.15;5.55;;;22.20;68.40;;;;;;6346258;27;89314;-71
2023/04/12 01:38:52;;;;;;;5.90;5.40;;;22.10;68.30;;;;;;6343040;27;89244;-71
2023/04/12 01:41:54;;;;;;;6.10;5.50;;;22.10;68.30;;;;;;6344330;27;89086;-71
2023/04/12 01:44:58;;;;;;;5.82;5.30;;;22.10;68.30;;;;;;6351541;27;88856;-71
2023/04/12 01:48:01;;;;;;;6.00;5.40;;;22.20;68.40;;;;;;6340616;27;89096;-71
2023/04/12 01:51:06;;;;;;;6.45;5.75;;;22.10;68.40;;;;;;6347014;27;88501;-72
2023/04/12 01:54:11;;;;;;;5.65;5.10;;;22.10;68.30;;;;;;6353464;27;88196;-71
2023/04/12 01:57:15;;;;;;;5.68;5.18;;;22.10;68.30;;;;;;6341208;27;87892;-71
2023/04/12 02:00:20;;;;;;;5.55;5.05;;;22.10;68.30;;;;;;6364261;27;90045;-71
2023/04/12 02:03:24;;;;;;;5.30;4.82;;;22.10;68.40;;;;;;6342703;27;89125;-71
2023/04/12 02:06:27;;;;;;;5.75;5.00;;;22.10;68.40;;;;;;6321139;27;89201;-71
2023/04/12 02:09:29;;;;;;;6.03;5.35;;;22.00;68.30;;;;;;6345600;27;89342;-71
2023/04/12 02:12:31;;;;;;;5.95;5.35;;;22.10;68.40;;;;;;6350927;27;89069;-72
2023/04/12 02:15:36;;;;;;;5.55;5.05;;;22.10;68.40;;;;;;6360027;27;89412;-71
2023/04/12 02:18:40;;;;;;;5.35;4.85;;;22.10;68.30;;;;;;6360944;27;89055;-72
2023/04/12 02:21:43;;;;;;;5.72;5.00;;;22.10;68.30;;;;;;6343483;27;88501;-72
2023/04/12 02:24:45;;;;;;;5.40;4.90;;;22.10;68.30;;;;;;6365138;27;89064;-71
2023/04/12 02:27:47;;;;;;;5.22;4.72;;;22.10;68.40;;;;;;6366350;27;89101;-71
2023/04/12 02:30:52;;;;;;;5.22;4.72;;;22.10;68.40;;;;;;6364369;27;90036;-71
2023/04/12 02:33:54;;;;;;;4.57;4.18;;;22.10;68.40;;;;;;6354937;27;88909;-72
2023/04/12 02:36:56;;;;;;;4.85;4.45;;;22.00;68.30;;;;;;6343131;27;90256;-72
2023/04/12 02:40:01;;;;;;;4.80;4.40;;;22.00;68.30;;;;;;6357549;27;89092;-72
2023/04/12 02:43:03;;;;;;;5.43;4.90;;;22.10;68.40;;;;;;6362681;27;89044;-72
2023/04/12 02:46:07;;;;;;;5.07;4.57;;;22.00;68.40;;;;;;6354786;27;89136;-71
2023/04/12 02:49:09;;;;;;;5.00;4.60;;;22.00;68.40;;;;;;6364361;27;87999;-72
2023/04/12 02:52:11;;;;;;;5.25;4.75;;;22.00;68.40;;;;;;6346711;27;88320;-71
2023/04/12 02:55:13;;;;;;;4.78;4.38;;;22.00;68.30;;;;;;6358647;27;88997;-72
2023/04/12 02:58:15;;;;;;;4.50;4.10;;;22.00;68.40;;;;;;6354195;27;89075;-72
2023/04/12 03:01:18;;;;;;;4.90;4.50;;;22.00;68.40;;;;;;6351910;27;90112;-72
2023/04/12 03:04:21;;;;;;;4.60;4.20;;;22.00;68.40;;;;;;6346197;27;89465;-71
2023/04/12 03:07:23;;;;;;;4.72;4.10;;;22.00;68.30;;;;;;6352577;27;89071;-72
2023/04/12 03:10:26;;;;;;;4.78;4.38;;;22.00;68.30;;;;;;6356931;27;87995;-71
2023/04/12 03:13:28;;;;;;;4.43;4.03;;;22.00;68.40;;;;;;6347289;27;89243;-72
2023/04/12 03:16:31;;;;;;;4.22;3.83;;;22.00;68.40;;;;;;6355726;27;89132;-71
2023/04/12 03:19:35;;;;;;;4.10;3.80;;;22.00;68.30;;;;;;6352090;27;89096;-72
2023/04/12 03:22:37;;;;;;;4.45;3.85;;;22.00;68.30;;;;;;6354326;27;88494;-71
2023/04/12 03:25:39;;;;;;;4.15;3.75;;;22.00;68.40;;;;;;6345096;27;89339;-70
2023/04/12 03:28:42;;;;;;;4.30;3.90;;;22.00;68.30;;;;;;6356338;27;89131;-71
2023/04/12 03:31:45;;;;;;;4.13;3.72;;;22.00;68.30;;;;;;6359125;27;89820;-71
2023/04/12 03:34:47;;;;;;;5.43;4.50;;;22.00;68.30;;;;;;6359908;27;89214;-71
2023/04/12 03:37:49;;;;;;;5.53;4.47;;;22.00;68.30;;;;;;6357353;27;89229;-70
2023/04/12 03:40:51;;;;;;;4.15;3.75;;;22.00;68.30;;;;;;6347733;27;89289;-70
2023/04/12 03:43:53;;;;;;;4.15;3.75;;;22.00;68.20;;;;;;6358247;27;89294;-71
2023/04/12 03:46:56;;;;;;;4.05;3.65;;;21.90;68.10;;;;;;6334996;27;89068;-71
2023/04/12 03:50:05;;;;;;;4.15;3.75;;;21.90;68.20;;;;;;6347471;27;88021;-71
2023/04/12 03:53:07;;;;;;;4.05;3.70;;;21.90;68.30;;;;;;6351984;27;88017;-70
2023/04/12 03:56:09;;;;;;;4.50;4.10;;;22.00;68.30;;;;;;6354409;27;87974;-71
2023/04/12 03:59:13;;;;;;;4.38;3.97;;;21.90;68.20;;;;;;6354174;27;89364;-71
2023/04/12 04:02:16;;;;;;;4.15;3.80;;;22.00;68.30;;;;;;6350490;27;89873;-70
2023/04/12 04:05:19;;;;;;;4.40;4.00;;;22.00;68.30;;;;;;6347826;27;89153;-71
2023/04/12 04:08:21;;;;;;;4.63;4.22;;;22.00;68.20;;;;;;6346617;27;88734;-71
2023/04/12 04:11:23;;;;;;;4.93;4.43;;;22.00;68.20;;;;;;6348187;27;89015;-71
2023/04/12 04:14:26;;;;;;;4.78;4.38;;;22.00;68.20;;;;;;6344530;27;89247;-71
2023/04/12 04:17:29;;;;;;;4.57;4.18;;;22.00;68.10;;;;;;6343575;27;89144;-71
2023/04/12 04:20:31;;;;;;;5.53;4.57;;;22.00;68.20;;;;;;6350204;27;89309;-72
2023/04/12 04:23:37;;;;;;;5.30;4.80;;;22.00;68.10;;;;;;6345120;27;88584;-70
2023/04/12 04:26:39;;;;;;;5.97;4.80;;;22.00;68.10;;;;;;6355677;27;88984;-71
2023/04/12 04:29:44;;;;;;;5.30;4.80;;;22.10;68.10;;;;;;6355232;27;89094;-69
2023/04/12 04:32:47;;;;;;;6.07;4.85;;;22.10;68.10;;;;;;6344540;27;88685;-69
2023/04/12 04:35:50;;;;;;;5.80;5.25;;;22.10;68.30;;;;;;6334217;27;89049;-69
2023/04/12 04:38:52;;;;;;;6.68;5.57;;;22.10;68.30;;;;;;6335648;27;88811;-69
2023/04/12 04:41:54;;;;;;;6.47;4.85;;;22.10;68.40;;;;;;6354533;27;89449;-72
2023/04/12 04:45:02;;;;;;;6.47;5.10;;;22.20;68.60;;;;;;6351734;27;89348;-71
2023/04/12 04:48:06;;;;;;;7.32;5.50;;;22.20;68.60;;;;;;6347933;27;88195;-70
2023/04/12 04:51:08;;;;;;;6.88;5.60;;;22.20;68.90;;;;;;6342886;27;89124;-71
2023/04/12 04:54:12;;;;;;;6.70;5.95;;;22.20;69.70;;;;;;6345305;27;87502;-71
2023/04/12 04:57:14;;;;;;;6.60;6.00;;;22.40;69.30;;;;;;6340856;27;88986;-71
2023/04/12 05:00:17;;;;;;;7.82;6.43;;;22.70;68.30;;;;;;6335284;27;89044;-69
2023/04/12 05:03:20;;;;;;;6.93;6.22;;;22.90;67.50;;;;;;6335533;27;89098;-70
2023/04/12 05:06:22;;;;;;;6.90;6.20;;;23.10;67.10;;;;;;6346133;27;89213;-70
2023/04/12 05:09:24;;;;;;;6.70;6.10;;;23.10;66.80;;;;;;6333421;27;87610;-69
2023/04/12 05:12:26;;;;;;;6.30;5.70;;;23.10;66.70;;;;;;6334841;27;89403;-70
2023/04/12 05:15:31;;;;;;;8.13;6.80;;;23.10;66.80;;;;;;6344992;27;89424;-69
2023/04/12 05:18:35;;;;;;;6.90;6.25;;;23.10;66.80;;;;;;6349087;27;89298;-69
2023/04/12 05:21:38;;;;;;;6.75;6.15;;;23.00;66.80;;;;;;6337983;27;89029;-71
2023/04/12 05:24:40;;;;;;;7.00;6.20;;;23.00;66.90;;;;;;6342318;27;88414;-69
2023/04/12 05:27:42;;;;;;;6.60;5.90;;;23.00;67.10;;;;;;6338917;27;89193;-69
2023/04/12 05:30:44;;;;;;;6.45;5.72;;;22.90;67.10;;;;;;6337775;27;88216;-71
2023/04/12 05:33:48;;;;;;;7.15;6.45;;;22.90;67.20;;;;;;6346728;27;90018;-70
2023/04/12 05:36:50;;;;;;;7.07;6.38;;;22.90;67.30;;;;;;6343622;27;89367;-70
2023/04/12 05:39:52;;;;;;;7.88;6.18;;;22.90;67.50;;;;;;6328921;27;89308;-70
2023/04/12 05:42:54;;;;;;;8.63;6.80;;;22.90;67.60;;;;;;6342364;27;88954;-70
2023/04/12 05:45:56;;;;;;;8.05;6.38;;;22.80;67.60;;;;;;6339949;27;89256;-69
2023/04/12 05:48:59;;;;;;;6.85;6.15;;;22.80;67.70;;;;;;6332167;27;89148;-69
2023/04/12 05:52:02;;;;;;;8.38;6.60;;;22.70;67.70;;;;;;6332059;27;89146;-69
2023/04/12 05:55:05;;;;;;;7.45;6.65;;;22.70;67.80;;;;;;6340898;27;87288;-69
2023/04/12 05:58:07;;;;;;;7.13;5.50;;;22.70;67.90;;;;;;6342498;27;89285;-69
2023/04/12 06:01:09;;;;;;;6.63;6.00;;;22.70;67.90;;;;;;6343368;27;89434;-69
2023/04/12 06:04:13;;;;;;;6.78;6.07;;;22.70;68.00;;;;;;6351973;27;89654;-69
2023/04/12 06:07:18;;;;;;;6.32;5.72;;;22.70;68.10;;;;;;6351480;27;89489;-69
2023/04/12 06:10:20;;;;;;;7.38;6.30;;;22.60;68.10;;;;;;6346028;27;89048;-69
2023/04/12 06:13:22;;;;;;;6.53;5.93;;;22.70;68.10;;;;;;6339076;27;89068;-70
2023/04/12 06:16:24;;;;;;;7.60;5.90;;;22.70;68.10;;;;;;6343140;27;88955;-71
2023/04/12 06:19:27;;;;;;;8.32;5.65;;;22.70;68.40;;;;;;6338948;27;89062;-71
2023/04/12 06:22:29;;;;;;;8.73;6.05;;;22.70;68.30;;;;;;6340749;27;88063;-70
2023/04/12 06:25:31;;;;;;;6.38;5.53;;;22.70;68.40;;;;;;6351146;27;88319;-69
2023/04/12 06:28:33;;;;;;;8.45;6.05;;;22.70;68.30;;;;;;6336672;27;89419;-69
2023/04/12 06:31:35;;;;;;;6.45;5.75;;;22.70;68.30;;;;;;6354514;27;88239;-69
2023/04/12 06:34:39;;;;;;;6.90;5.97;;;22.60;69.20;;;;;;6350002;27;89904;-69
2023/04/12 06:37:41;;;;;;;6.57;5.88;;;22.60;68.30;;;;;;6353072;27;89291;-70
2023/04/12 06:40:43;;;;;;;6.25;5.65;;;22.70;68.30;;;;;;6333784;27;89014;-69
2023/04/12 06:43:45;;;;;;;7.45;5.70;;;22.60;68.30;;;;;;6346088;27;89350;-69
2023/04/12 06:46:47;;;;;;;6.72;5.93;;;22.70;68.40;;;;;;6351604;27;89335;-70
2023/04/12 06:49:54;;;;;;;6.32;5.40;;;22.70;68.40;;;;;;6349712;27;89082;-70
2023/04/12 06:52:55;;;;;;;6.18;5.57;;;22.60;68.40;;;;;;6335888;27;88059;-69
2023/04/12 06:55:58;;;;;;;6.90;5.45;;;22.60;68.40;;;;;;6354144;27;87563;-70
2023/04/12 06:59:00;;;;;;;6.15;5.55;;;22.70;68.40;;;;;;6348963;27;89507;-69
2023/04/12 07:02:02;;;;;;;7.13;5.22;;;22.70;68.50;;;;;;6347488;27;89617;-70
2023/04/12 07:05:06;;;;;;;6.43;5.18;;;22.70;68.50;;;;;;6342368;27;88917;-68
2023/04/12 07:08:09;;;;;;;5.85;5.25;;;22.70;68.50;;;;;;6341899;27;89243;-68
2023/04/12 07:11:11;;;;;;;5.68;5.10;;;22.70;68.50;;;;;;6343181;27;88976;-67
2023/04/12 07:14:13;;;;;;;5.90;5.30;;;22.70;68.50;;;;;;6341727;27;89063;-68
2023/04/12 07:17:15;;;;;;;6.82;5.05;;;22.70;68.50;;;;;;6347139;27;89533;-69
2023/04/12 07:20:18;;;;;;;6.05;5.07;;;22.70;68.50;;;;;;6353540;27;89546;-69
2023/04/12 07:23:20;;;;;;;6.18;4.90;;;22.70;68.60;;;;;;6335677;27;87977;-68
2023/04/12 07:26:22;;;;;;;5.68;5.10;;;22.70;68.60;;;;;;6351828;27;88663;-69
2023/04/12 07:29:25;;;;;;;5.70;5.20;;;22.70;68.50;;;;;;6353631;27;89063;-69
2023/04/12 07:32:27;;;;;;;5.00;4.50;;;22.70;68.60;;;;;;6341781;27;89956;-69
2023/04/12 07:35:30;;;;;;;5.72;5.10;;;22.70;68.60;;;;;;6347978;27;89915;-68
2023/04/12 07:38:32;;;;;;;5.47;4.95;;;22.70;68.60;;;;;;6344545;27;89025;-70
2023/04/12 07:41:34;;;;;;;6.00;5.00;;;22.70;68.60;;;;;;6336544;27;90716;-68
2023/04/12 07:44:36;;;;;;;5.65;5.15;;;22.70;68.60;;;;;;6345237;27;89411;-69
2023/04/12 07:47:38;;;;;;;5.35;4.85;;;22.70;68.60;;;;;;6339467;27;87979;-69
2023/04/12 07:50:42;;;;;;;5.38;4.35;;;22.70;68.60;;;;;;6335784;27;88977;-71
2023/04/12 07:53:47;;;;;;;5.20;4.18;;;22.70;68.70;;;;;;6343478;27;89692;-70
2023/04/12 07:56:58;;;;;;;5.32;4.82;;;22.70;69.60;;;;;;6354107;27;89216;-70
2023/04/12 08:00:00;;;;;;;6.10;4.90;;;22.70;68.80;;;;;;6356273;27;89023;-70
2023/04/12 08:03:02;;;;;;;5.68;4.80;;;22.80;68.80;;;;;;6341471;27;89114;-71
2023/04/12 08:06:06;;;;;;;5.22;4.72;;;22.80;68.80;;;;;;6351319;27;89898;-70
2023/04/12 08:09:08;;;;;;;5.03;4.53;;;22.80;68.70;;;;;;6346175;27;89084;-70
2023/04/12 08:12:11;;;;;;;5.70;5.10;;;22.80;68.80;;;;;;6356148;27;89475;-70
2023/04/12 08:15:13;;;;;;;5.72;4.80;;;22.80;68.70;;;;;;6333824;27;89030;-70
2023/04/12 08:18:15;;;;;;;5.32;4.82;;;22.70;68.60;;;;;;6360050;27;89112;-71
2023/04/12 08:21:18;;;;;;;5.35;4.85;;;22.70;68.60;;;;;;6340426;27;88937;-70
2023/04/12 08:24:20;;;;;;;6.45;4.20;;;22.80;68.60;;;;;;6345667;27;87997;-69
2023/04/12 08:27:22;;;;;;;5.32;4.82;;;22.80;68.60;;;;;;6341242;27;88445;-70
2023/04/12 08:30:25;;;;;;;5.53;4.85;;;22.80;68.60;;;;;;6352297;27;89428;-69
2023/04/12 08:33:27;;;;;;;5.35;4.35;;;22.80;68.50;;;;;;6349264;27;90529;-70
2023/04/12 08:36:31;;;;;;;5.38;4.82;;;22.80;68.60;;;;;;6354210;27;89109;-71
2023/04/12 08:39:33;;;;;;;5.80;4.95;;;22.70;68.80;;;;;;6348251;27;89314;-70
2023/04/12 08:42:36;;;;;;;5.65;5.07;;;22.80;68.70;;;;;;6353827;27;88203;-70
2023/04/12 08:45:39;;;;;;;7.32;5.65;;;22.80;68.80;;;;;;6352639;27;89422;-70
2023/04/12 08:48:43;;;;;;;7.53;5.03;;;22.80;68.80;;;;;;6331776;27;89170;-68
2023/04/12 08:51:46;;;;;;;6.13;5.05;;;22.80;68.90;;;;;;6330880;27;89148;-69
2023/04/12 08:54:48;;;;;;;5.18;4.68;;;22.80;69.10;;;;;;6342634;27;87944;-70
2023/04/12 08:57:54;;;;;;;6.15;5.45;;;22.80;70.00;;;;;;6333495;27;88353;-70
2023/04/12 09:00:56;;;;;;;7.40;5.22;;;22.80;69.10;;;;;;6336028;27;89514;-70
2023/04/12 09:03:58;;;;;;;7.20;5.22;;;22.80;69.00;;;;;;6338557;27;89061;-71
2023/04/12 09:07:01;;;;;;;7.88;5.30;;;22.80;69.10;;;;;;6340168;27;90085;-70
2023/04/12 09:10:04;;;;;;;6.28;5.68;;;22.80;69.10;;;;;;6329683;27;89321;-70
2023/04/12 09:13:07;;;;;;;5.60;5.00;;;22.80;69.10;;;;;;6343511;27;89036;-70
2023/04/12 09:16:09;;;;;;;6.55;5.47;;;22.80;69.10;;;;;;6343616;27;89001;-71
2023/04/12 09:19:11;;;;;;;6.65;5.35;;;22.80;69.20;;;;;;6336667;27;88241;-71
2023/04/12 09:22:15;;;;;;;6.25;5.20;;;22.80;69.20;;;;;;6335763;27;89113;-70
2023/04/12 09:25:17;;;;;;;6.45;5.22;;;22.80;69.20;;;;;;6337621;27;89033;-68
2023/04/12 09:28:24;;;;;;;7.25;5.82;;;22.80;69.30;;;;;;6336476;27;88369;-69
2023/04/12 09:31:26;;;;;;;6.68;5.40;;;22.80;69.30;;;;;;6335662;27;89233;-70
2023/04/12 09:34:28;;;;;;;7.57;5.97;;;22.80;69.30;;;;;;6334080;27;89322;-70
2023/04/12 09:37:32;;;;;;;6.20;5.60;;;22.80;69.30;;;;;;6332703;27;90000;-70
2023/04/12 09:40:35;;;;;;;6.75;5.32;;;22.90;69.30;;;;;;6331115;27;87987;-70
2023/04/12 09:43:38;;;;;;;6.75;5.70;;;22.80;69.20;;;;;;6336502;27;89038;-71
2023/04/12 09:46:51;;;;;;;5.95;5.32;;;22.80;69.20;;;;;;6345907;27;88970;-71
2023/04/12 09:49:52;;;;;;;6.45;5.75;;;22.90;69.40;;;;;;6357978;27;89074;-72
2023/04/12 09:52:56;;;;;;;6.35;5.60;;;22.80;69.30;;;;;;6355642;27;89372;-71
2023/04/12 09:56:01;;;;;;;8.32;5.95;;;22.90;69.40;;;;;;6343392;27;88879;-71
2023/04/12 09:59:04;;;;;;;6.43;5.60;;;22.80;69.30;;;;;;6330049;27;88640;-71
2023/04/12 10:02:11;;;;;;;7.97;6.25;;;22.90;69.30;;;;;;6330718;27;89055;-71
2023/04/12 10:05:15;;;;;;;6.13;5.20;;;22.90;69.30;;;;;;6350801;27;89362;-70
2023/04/12 10:08:19;;;;;;;7.03;6.00;;;22.90;69.30;;;;;;6348158;27;89999;-71
2023/04/12 10:11:22;;;;;;;6.90;6.15;;;22.90;69.30;;;;;;6342867;27;88196;-71
2023/04/12 10:14:27;;;;;;;6.60;5.75;;;22.90;69.30;;;;;;6357947;27;87947;-71
2023/04/12 10:17:29;;;;;;;6.40;5.70;;;22.90;69.20;;;;;;6357061;27;88747;-71
2023/04/12 10:20:32;;;;;;;6.47;5.75;;;22.90;69.10;;;;;;6345440;27;89085;-72
2023/04/12 10:23:36;;;;;;;7.35;6.35;;;22.90;69.20;;;;;;6349532;27;89077;-71
2023/04/12 10:26:42;;;;;;;7.80;5.85;;;22.90;69.10;;;;;;6356584;27;89032;-71
2023/04/12 10:29:45;;;;;;;6.70;5.88;;;22.90;69.20;;;;;;6347917;27;88308;-71
2023/04/12 10:32:47;;;;;;;7.38;5.70;;;22.90;69.20;;;;;;6341060;27;89094;-71
2023/04/12 10:35:55;;;;;;;6.50;5.90;;;22.90;69.10;;;;;;6346375;27;89037;-71
2023/04/12 10:39:10;;;;;;;6.30;5.65;;;22.90;69.10;;;;;;6344338;27;89899;-71
2023/04/12 10:42:16;;;;;;;6.43;5.65;;;22.90;69.10;;;;;;6349384;27;88734;-71
2023/04/12 10:45:38;;;;;;;7.97;5.97;;;22.90;69.10;;;;;;6359150;27;89077;-71
2023/04/12 10:48:51;;;;;;;7.60;5.90;;;22.90;69.10;;;;;;6350899;27;89218;-71
2023/04/12 10:52:15;;;;;;;7.10;5.80;;;22.90;69.00;;;;;;6347014;27;89331;-71
2023/04/12 10:55:32;;;;;;;6.40;5.68;;;22.90;69.00;;;;;;6354252;27;88971;-71
2023/04/12 10:58:56;;;;;;;6.47;5.78;;;22.90;68.90;;;;;;6356573;27;89040;-71
2023/04/12 11:02:12;;;;;;;6.93;6.22;;;22.90;68.90;;;;;;6333913;27;88266;-71
2023/04/12 11:05:17;;;;;;;6.68;5.82;;;22.90;68.90;;;;;;6346312;27;89081;-71
2023/04/12 11:08:19;;;;;;;5.97;5.38;;;22.90;68.90;;;;;;6347052;27;88988;-72
2023/04/12 11:11:23;;;;;;;7.75;5.90;;;22.90;68.90;;;;;;6342070;27;90252;-71
2023/04/12 11:14:30;;;;;;;6.30;5.53;;;22.90;68.90;;;;;;6356196;27;88973;-71
2023/04/12 11:17:32;;;;;;;6.57;5.40;;;22.90;69.30;;;;;;6357294;27;88997;-72
2023/04/12 11:20:35;;;;;;;6.38;5.55;;;22.90;68.90;;;;;;6343911;27;89009;-71
2023/04/12 11:23:40;;;;;;;5.90;5.05;;;23.00;68.90;;;;;;6335061;27;89144;-71
2023/04/12 11:26:44;;;;;;;7.63;5.78;;;22.90;69.80;;;;;;6355977;27;88995;-70
2023/04/12 11:29:50;;;;;;;7.63;5.55;;;22.90;68.90;;;;;;6332388;27;89245;-71
2023/04/12 11:32:52;;;;;;;6.65;5.25;;;22.90;68.90;;;;;;6345835;27;88729;-71
2023/04/12 11:35:54;;;;;;;8.20;5.65;;;22.90;69.00;;;;;;6345309;27;89143;-69
2023/04/12 11:38:57;;;;;;;7.70;5.25;;;22.90;69.00;;;;;;6340845;27;89045;-70
2023/04/12 11:42:02;;;;;;;6.20;5.35;;;22.90;69.10;;;;;;6344056;27;90216;-70
2023/04/12 11:45:04;;;;;;;7.28;5.50;;;22.90;69.20;;;;;;6346343;27;89001;-70
2023/04/12 11:48:08;;;;;;;6.20;5.40;;;22.90;69.30;;;;;;6345531;27;87873;-72
2023/04/12 11:51:20;;;;;;;5.93;5.18;;;22.90;69.30;;;;;;6331667;27;89099;-71
2023/04/12 11:54:29;;;;;;;7.25;5.43;;;23.00;69.40;;;;;;6344610;27;89036;-71
2023/04/12 11:57:33;;;;;;;7.13;5.20;;;22.90;69.40;;;;;;6349236;27;89346;-71
2023/04/12 12:00:35;;;;;;;8.18;5.65;;;22.90;69.40;;;;;;6342731;27;89083;-70
2023/04/12 12:03:37;;;;;;;7.15;6.25;;;22.90;69.40;;;;;;6342852;27;88334;-71
2023/04/12 12:06:39;;;;;;;7.13;5.53;;;22.90;69.40;;;;;;6357011;27;88122;-71
2023/04/12 12:09:42;;;;;;;5.70;5.10;;;22.90;70.30;;;;;;6356589;27;89098;-71
2023/04/12 12:12:46;;;;;;;7.93;5.32;;;23.00;69.40;;;;;;6334045;27;89963;-70
2023/04/12 12:15:52;;;;;;;6.03;5.30;;;22.90;69.30;;;;;;6336825;27;89060;-70
2023/04/12 12:18:54;;;;;;;6.85;5.25;;;22.90;69.30;;;;;;6351583;27;87983;-71
2023/04/12 12:22:15;;;;;;;6.85;5.50;;;22.90;69.30;;;;;;6347869;27;89001;-71
2023/04/12 12:25:18;;;;;;;6.20;5.07;;;22.90;69.30;;;;;;6356100;27;88464;-71
2023/04/12 12:28:24;;;;;;;6.32;5.20;;;22.90;69.30;;;;;;6355751;27;88306;-71
2023/04/12 12:31:27;;;;;;;6.68;5.57;;;22.90;69.20;;;;;;6341385;27;89073;-71
2023/04/12 12:34:33;;;;;;;7.03;5.55;;;22.90;69.30;;;;;;6331110;27;88460;-71
2023/04/12 12:37:35;;;;;;;5.47;4.65;;;22.90;69.30;;;;;;6331647;27;89362;-70
2023/04/12 12:40:37;;;;;;;6.18;4.97;;;22.90;69.20;;;;;;6347157;27;88517;-71
2023/04/12 12:43:44;;;;;;;5.78;5.13;;;22.90;69.20;;;;;;6352430;27;90052;-71
2023/04/12 12:46:46;;;;;;;6.03;5.22;;;22.90;69.20;;;;;;6343264;27;89676;-71
2023/04/12 12:49:48;;;;;;;6.05;4.85;;;22.90;69.30;;;;;;6344992;27;89215;-71
2023/04/12 12:52:51;;;;;;;5.78;5.18;;;22.90;69.20;;;;;;6343616;27;89320;-70
2023/04/12 12:55:53;;;;;;;5.50;4.68;;;22.90;69.20;;;;;;6355364;27;89004;-71
2023/04/12 12:58:56;;;;;;;6.50;5.03;;;22.90;69.20;;;;;;6344275;27;89008;-71
2023/04/12 13:01:58;;;;;;;5.65;4.70;;;22.90;69.30;;;;;;6343646;27;89329;-71
2023/04/12 13:05:01;;;;;;;6.82;4.95;;;22.90;69.30;;;;;;6342165;27;88303;-71
2023/04/12 13:08:03;;;;;;;6.32;5.00;;;22.90;69.10;;;;;;6347343;27;89101;-70
2023/04/12 13:11:06;;;;;;;6.40;4.72;;;22.90;69.20;;;;;;6340067;27;89071;-70
2023/04/12 13:14:10;;;;;;;5.20;4.70;;;22.90;69.10;;;;;;6355430;27;90001;-71
2023/04/12 13:17:12;;;;;;;5.30;4.80;;;22.90;69.10;;;;;;6344645;27;89121;-71
2023/04/12 13:20:14;;;;;;;5.85;4.72;;;22.90;69.10;;;;;;6356967;27;89078;-71
2023/04/12 13:23:16;;;;;;;5.20;4.40;;;22.90;69.10;;;;;;6346889;27;89203;-71
2023/04/12 13:26:18;;;;;;;5.78;4.72;;;22.90;69.10;;;;;;6345510;27;89070;-71
2023/04/12 13:29:21;;;;;;;5.68;4.75;;;22.90;69.10;;;;;;6344482;27;88826;-70
2023/04/12 13:32:23;;;;;;;5.88;4.97;;;22.90;68.90;;;;;;6357482;27;89052;-71
2023/04/12 13:35:25;;;;;;;5.15;4.65;;;22.90;68.90;;;;;;6344611;27;87181;-71
2023/04/12 13:38:27;;;;;;;5.18;4.63;;;22.90;68.90;;;;;;6337500;27;89126;-71
2023/04/12 13:41:31;;;;;;;5.40;4.57;;;22.90;68.90;;;;;;6341366;27;89137;-72
2023/04/12 13:44:35;;;;;;;5.68;4.80;;;22.90;68.90;;;;;;6334171;27;89878;-72
2023/04/12 13:47:38;;;;;;;5.75;4.55;;;22.90;68.90;;;;;;6355683;27;89021;-71
2023/04/12 13:50:40;;;;;;;4.82;4.20;;;22.90;68.80;;;;;;6358125;27;89351;-71
2023/04/12 13:53:42;;;;;;;4.80;4.25;;;22.90;68.80;;;;;;6341167;27;89071;-72
2023/04/12 13:56:44;;;;;;;4.85;4.30;;;22.90;68.80;;;;;;6343472;27;88978;-71
2023/04/12 13:59:47;;;;;;;4.75;4.25;;;22.90;68.80;;;;;;6332535;27;89006;-71
2023/04/12 14:02:49;;;;;;;5.35;4.20;;;22.90;68.80;;;;;;6337845;27;89017;-72
2023/04/12 14:05:51;;;;;;;5.10;4.40;;;22.90;68.90;;;;;;6352455;27;88340;-72
2023/04/12 14:08:53;;;;;;;5.80;4.70;;;22.90;68.90;;;;;;6332849;27;89050;-71
2023/04/12 14:11:56;;;;;;;5.28;4.55;;;22.90;68.80;;;;;;6332639;27;89048;-72
2023/04/12 14:15:00;;;;;;;4.72;4.25;;;22.90;68.80;;;;;;6344543;27;91042;-72
2023/04/12 14:18:02;;;;;;;5.53;4.38;;;22.90;68.80;;;;;;6356530;27;89190;-73
2023/04/12 14:21:04;;;;;;;5.03;4.25;;;22.90;68.80;;;;;;6347009;27;89186;-72
2023/04/12 14:24:06;;;;;;;4.38;3.97;;;22.90;68.90;;;;;;6338117;27;89128;-71
2023/04/12 14:27:09;;;;;;;4.38;3.97;;;22.90;68.80;;;;;;6356307;27;88988;-72
2023/04/12 14:30:13;;;;;;;5.60;4.10;;;22.90;68.80;;;;;;6353160;27;89154;-72
2023/04/12 14:33:15;;;;;;;5.07;4.10;;;22.90;68.90;;;;;;6345158;27;89039;-72
2023/04/12 14:36:17;;;;;;;5.22;4.10;;;22.90;68.80;;;;;;6334023;27;88320;-72
2023/04/12 14:39:19;;;;;;;4.97;3.88;;;22.90;68.80;;;;;;6356938;27;87944;-72
2023/04/12 14:42:21;;;;;;;4.55;4.05;;;22.90;68.80;;;;;;6335562;27;89035;-72
2023/04/12 14:45:26;;;;;;;4.25;3.85;;;22.90;68.80;;;;;;6354934;27;90000;-72
2023/04/12 14:48:28;;;;;;;4.10;3.70;;;22.90;68.80;;;;;;6347033;27;89109;-72
2023/04/12 14:51:30;;;;;;;4.18;3.78;;;22.90;68.80;;;;;;6343856;27;89060;-72
2023/04/12 14:54:32;;;;;;;4.50;4.00;;;22.90;68.80;;;;;;6347574;27;89045;-72
2023/04/12 14:57:35;;;;;;;4.25;3.67;;;22.90;68.80;;;;;;6352554;27;87932;-71
2023/04/12 15:00:38;;;;;;;4.50;4.10;;;22.90;68.80;;;;;;6335401;27;89430;-71
2023/04/12 15:03:41;;;;;;;4.50;3.75;;;22.90;68.80;;;;;;6336047;27;89148;-71
2023/04/12 15:06:43;;;;;;;4.38;3.90;;;22.90;68.80;;;;;;6356383;27;88400;-72
2023/04/12 15:09:45;;;;;;;3.83;3.40;;;22.90;68.80;;;;;;6337112;27;89449;-72
2023/04/12 15:12:47;;;;;;;4.05;3.65;;;22.90;68.80;;;;;;6350367;27;89122;-72
2023/04/12 15:15:51;;;;;;;4.10;3.70;;;22.90;68.80;;;;;;6347889;27;90035;-71
2023/04/12 15:18:53;;;;;;;4.10;3.70;;;22.90;68.80;;;;;;6348237;27;88440;-71
2023/04/12 15:21:55;;;;;;;4.38;3.67;;;22.90;68.80;;;;;;6347322;27;89066;-72
2023/04/12 15:24:57;;;;;;;4.40;4.00;;;22.90;68.80;;;;;;6359620;27;88761;-71
2023/04/12 15:28:00;;;;;;;4.00;3.60;;;22.90;68.80;;;;;;6361021;27;87996;-72
2023/04/12 15:31:03;;;;;;;4.93;3.55;;;22.90;68.80;;;;;;6348505;27;89484;-72
2023/04/12 15:34:06;;;;;;;3.88;3.47;;;22.90;68.80;;;;;;6335753;27;89119;-71
2023/04/12 15:37:08;;;;;;;4.35;3.83;;;22.90;68.80;;;;;;6335614;27;86302;-71
2023/04/12 15:40:12;;;;;;;4.13;3.67;;;22.90;68.70;;;;;;6352633;27;89155;-71
2023/04/12 15:43:14;;;;;;;4.28;3.50;;;22.90;68.70;;;;;;6360183;27;89095;-71
2023/04/12 15:46:17;;;;;;;3.53;3.22;;;22.90;68.80;;;;;;6358998;27;90164;-71
2023/04/12 15:49:20;;;;;;;3.38;3.08;;;22.90;68.70;;;;;;6339867;27;89043;-71
2023/04/12 15:52:21;;;;;;;4.15;3.47;;;22.90;68.70;;;;;;6334378;27;89074;-71
2023/04/12 15:55:23;;;;;;;3.83;3.53;;;22.90;68.80;;;;;;6356473;27;89103;-71
2023/04/12 15:58:26;;;;;;;3.30;3.00;;;22.90;68.70;;;;;;6350045;27;89107;-71